Time;durP1;ratioP1;P1;durP2;ratioP2;P2;SDS_P1;SDS_P2;PMS_P1;PMS_P2;Temp;Humidity;BMP_temperature;BMP_pressure;BME280_temperature;BME280_humidity;BME280_pressure;Samples;Min_cycle;Max_cycle;Signal;HPM_P1;HPM_P2
2022/03/18 00:02:06;;;;;;;19.52;7.68;;;6.40;99.90;;;;;;5071896;28;20601;-49
2022/03/18 00:04:31;;;;;;;13.25;8.30;;;9.10;99.90;;;;;;5071506;28;20185;-49
2022/03/18 00:06:57;;;;;;;14.30;7.68;;;6.40;99.90;;;;;;5071942;28;20639;-48
2022/03/18 00:09:23;;;;;;;20.73;7.68;;;6.30;99.90;;;;;;5071696;28;20639;-48
2022/03/18 00:11:48;;;;;;;18.33;8.23;;;6.40;99.90;;;;;;5071459;28;20167;-48
2022/03/18 00:14:14;;;;;;;16.38;7.80;;;6.30;99.90;;;;;;5071502;28;20188;-48
2022/03/18 00:16:40;;;;;;;20.33;9.10;;;6.30;99.90;;;;;;5071364;28;20628;-48
2022/03/18 00:19:06;;;;;;;19.55;9.18;;;6.30;99.90;;;;;;5071556;28;20170;-48
2022/03/18 00:21:31;;;;;;;21.63;9.20;;;6.30;99.90;;;;;;5071530;28;20224;-48
2022/03/18 00:23:58;;;;;;;15.10;9.65;;;6.20;99.90;;;;;;5075043;28;20162;-48
2022/03/18 00:26:23;;;;;;;24.17;10.57;;;6.20;99.90;;;;;;5075147;28;20166;-48
2022/03/18 00:28:49;;;;;;;22.83;10.00;;;6.20;99.90;;;;;;5074964;28;20173;-48
2022/03/18 00:31:14;;;;;;;20.88;10.30;;;6.20;99.90;;;;;;5074968;28;20165;-49
2022/03/18 00:33:40;;;;;;;22.35;11.05;;;6.20;99.90;;;;;;5074844;28;20533;-48
2022/03/18 00:36:06;;;;;;;21.92;13.00;;;6.20;99.90;;;;;;5074813;28;20237;-49
2022/03/18 00:38:31;;;;;;;25.27;13.75;;;6.10;99.90;;;;;;5074794;28;20170;-48
2022/03/18 00:40:57;;;;;;;25.38;15.05;;;6.10;99.90;;;;;;5074899;28;20205;-49
2022/03/18 00:43:23;;;;;;;27.60;12.60;;;6.10;99.90;;;;;;5074676;28;20253;-49
2022/03/18 00:45:49;;;;;;;24.83;12.50;;;6.10;99.90;;;;;;5056745;28;20201;-49
2022/03/18 00:53:47;;;;;;;22.95;12.88;;;6.00;99.90;;;;;;5074630;28;20310;-49
2022/03/18 00:56:13;;;;;;;24.35;10.27;;;6.00;99.90;;;;;;5074577;28;20249;-48
2022/03/18 00:58:38;;;;;;;19.63;10.93;;;6.00;99.90;;;;;;5074478;28;20166;-49
2022/03/18 01:01:04;;;;;;;28.52;15.65;;;6.00;99.90;;;;;;5074337;28;20318;-48
2022/03/18 01:03:30;;;;;;;28.33;14.65;;;6.00;99.90;;;;;;5074353;28;20166;-48
2022/03/18 01:05:55;;;;;;;29.80;15.88;;;5.90;99.90;;;;;;5074409;28;20170;-48
2022/03/18 01:08:21;;;;;;;21.45;13.27;;;5.90;99.90;;;;;;5074011;28;20579;-48
2022/03/18 01:10:46;;;;;;;22.90;11.13;;;5.90;99.90;;;;;;5074182;28;20162;-48
2022/03/18 01:13:12;;;;;;;21.10;10.90;;;5.90;99.90;;;;;;5074265;28;20159;-48
2022/03/18 01:15:37;;;;;;;16.98;9.30;;;5.90;99.90;;;;;;5074131;28;20178;-48
2022/03/18 01:18:03;;;;;;;18.58;9.75;;;5.90;99.90;;;;;;5074079;28;20170;-48
2022/03/18 01:20:29;;;;;;;17.10;9.38;;;5.80;99.90;;;;;;5074168;28;20210;-48
2022/03/18 01:22:55;;;;;;;15.00;9.13;;;5.80;99.90;;;;;;5074515;28;20243;-48
2022/03/18 01:25:20;;;;;;;22.63;10.23;;;5.80;99.90;;;;;;5073982;28;20623;-48
2022/03/18 01:27:46;;;;;;;20.48;10.32;;;5.80;99.90;;;;;;5073894;28;20197;-48
2022/03/18 01:30:13;;;;;;;18.92;11.80;;;5.70;99.90;;;;;;5073770;28;20265;-48
2022/03/18 01:32:39;;;;;;;21.63;10.70;;;5.70;99.90;;;;;;5074092;28;20249;-48
2022/03/18 01:35:05;;;;;;;15.63;9.23;;;5.70;99.90;;;;;;5073780;28;20648;-48
2022/03/18 01:37:31;;;;;;;13.77;9.57;;;5.70;99.90;;;;;;5073749;28;20631;-48
2022/03/18 01:39:56;;;;;;;12.55;8.30;;;5.80;99.90;;;;;;5073843;28;20567;-48
2022/03/18 01:42:22;;;;;;;11.38;7.13;;;5.70;99.90;;;;;;5073614;28;20253;-48
2022/03/18 01:44:48;;;;;;;13.88;8.40;;;5.70;99.90;;;;;;5073635;28;20185;-48
2022/03/18 01:47:13;;;;;;;14.43;8.25;;;5.80;99.90;;;;;;5073346;28;20687;-48
2022/03/18 01:49:39;;;;;;;14.20;8.18;;;5.70;99.90;;;;;;5073517;28;20165;-48
2022/03/18 01:52:07;;;;;;;14.63;8.93;;;5.70;99.90;;;;;;5073467;28;20178;-48
2022/03/18 01:54:45;;;;;;;15.93;8.45;;;5.60;99.90;;;;;;5073307;28;20170;-48
2022/03/18 01:57:12;;;;;;;20.15;7.88;;;5.60;99.90;;;;;;5073574;28;20169;-48
2022/03/18 01:59:38;;;;;;;16.60;8.93;;;5.60;99.90;;;;;;5073159;28;20169;-48
2022/03/18 02:02:04;;;;;;;13.60;7.55;;;5.50;99.90;;;;;;5073162;28;20609;-48
2022/03/18 02:04:32;;;;;;;11.75;7.30;;;5.50;99.90;;;;;;5073103;28;20166;-48
2022/03/18 02:06:59;;;;;;;15.13;8.48;;;5.50;99.90;;;;;;5073603;28;20178;-48
2022/03/18 02:09:25;;;;;;;11.60;7.95;;;5.40;99.90;;;;;;5073374;28;20254;-48
2022/03/18 02:11:51;;;;;;;13.65;7.70;;;5.40;99.90;;;;;;5072921;28;20295;-48
2022/03/18 02:14:45;;;;;;;22.67;8.18;;;5.50;99.90;;;;;;5072915;28;20253;-48
2022/03/18 02:17:13;;;;;;;17.17;9.77;;;5.40;99.90;;;;;;5072943;28;20166;-48
2022/03/18 02:19:40;;;;;;;15.45;8.75;;;5.40;99.90;;;;;;5072847;28;20195;-48
2022/03/18 02:22:35;;;;;;;16.35;9.23;;;5.40;99.90;;;;;;5073069;28;20184;-49
2022/03/18 02:25:01;;;;;;;18.13;9.88;;;5.40;99.90;;;;;;5072731;28;20169;-48
2022/03/18 02:27:26;;;;;;;14.85;8.68;;;5.50;99.90;;;;;;5073014;28;20165;-48
2022/03/18 02:29:53;;;;;;;15.80;8.57;;;5.40;99.90;;;;;;5072746;28;20260;-48
2022/03/18 02:32:19;;;;;;;15.63;9.38;;;5.40;99.90;;;;;;5072590;28;20228;-49
2022/03/18 02:34:44;;;;;;;13.23;8.30;;;5.40;99.90;;;;;;5072679;28;20162;-48
2022/03/18 02:37:10;;;;;;;17.80;8.88;;;5.40;99.90;;;;;;5072771;28;20170;-49
2022/03/18 02:39:36;;;;;;;15.85;8.82;;;5.30;99.90;;;;;;5054452;28;20169;-49
2022/03/18 02:42:02;;;;;;;15.40;9.00;;;5.40;99.90;;;;;;5072916;28;20170;-48
2022/03/18 02:44:27;;;;;;;14.40;8.80;;;5.40;99.90;;;;;;5072616;28;20157;-48
2022/03/18 02:46:53;;;;;;;12.90;8.13;;;5.30;99.90;;;;;;5071965;28;20222;-48
2022/03/18 02:49:24;;;;;;;13.40;8.23;;;5.40;99.90;;;;;;5072447;28;20154;-48
2022/03/18 02:51:49;;;;;;;14.27;8.27;;;5.30;99.90;;;;;;5072493;28;20170;-49
2022/03/18 02:54:16;;;;;;;12.65;8.45;;;5.30;99.90;;;;;;5054662;28;20581;-48
2022/03/18 02:56:41;;;;;;;17.15;8.65;;;5.30;99.90;;;;;;5072205;28;20165;-48
2022/03/18 02:59:07;;;;;;;14.20;8.20;;;5.20;99.90;;;;;;5072467;28;20661;-49
2022/03/18 03:01:32;;;;;;;14.35;7.68;;;5.10;99.90;;;;;;5072058;28;20213;-48
2022/03/18 03:03:59;;;;;;;15.57;8.43;;;5.10;99.90;;;;;;5072638;28;20162;-48
2022/03/18 03:09:09;;;;;;;15.30;8.10;;;5.10;99.90;;;;;;5072656;28;20173;-48
2022/03/18 03:11:35;;;;;;;13.75;7.68;;;5.00;99.90;;;;;;5072043;28;20256;-48
2022/03/18 03:14:01;;;;;;;16.77;7.95;;;5.00;99.90;;;;;;5072042;28;20170;-48
2022/03/18 03:16:27;;;;;;;20.95;8.20;;;5.00;99.90;;;;;;5072558;28;20162;-49
2022/03/18 03:18:52;;;;;;;19.98;9.00;;;5.00;99.90;;;;;;5071907;28;20655;-48
2022/03/18 03:21:18;;;;;;;22.35;9.05;;;5.00;99.90;;;;;;5071969;28;20244;-48
2022/03/18 03:23:44;;;;;;;14.55;8.07;;;5.00;99.90;;;;;;5071912;28;20162;-48
2022/03/18 03:26:10;;;;;;;15.20;9.32;;;5.00;99.90;;;;;;5071875;28;20177;-48
2022/03/18 03:28:36;;;;;;;21.05;8.10;;;5.00;99.90;;;;;;5072103;28;20173;-49
2022/03/18 03:31:01;;;;;;;21.10;8.30;;;5.00;99.90;;;;;;5071778;28;20189;-49
2022/03/18 03:33:27;;;;;;;18.90;8.10;;;5.00;99.90;;;;;;5072181;28;20166;-48
2022/03/18 03:35:54;;;;;;;15.55;7.72;;;5.00;99.90;;;;;;5071702;28;20170;-49
2022/03/18 03:38:21;;;;;;;13.55;8.60;;;5.00;99.90;;;;;;5071771;28;20197;-48
2022/03/18 03:40:47;;;;;;;14.88;8.77;;;5.00;99.90;;;;;;5071736;28;20205;-48
2022/03/18 03:43:13;;;;;;;14.73;8.60;;;5.00;99.90;;;;;;5071738;28;20227;-48
2022/03/18 03:45:39;;;;;;;21.83;8.48;;;5.00;99.90;;;;;;5071916;28;20203;-48
2022/03/18 03:48:06;;;;;;;14.70;8.15;;;5.10;99.90;;;;;;5071526;28;20621;-48
2022/03/18 03:50:32;;;;;;;10.32;7.25;;;5.00;99.90;;;;;;5071557;28;20602;-48
2022/03/18 03:52:58;;;;;;;14.18;8.27;;;5.00;99.90;;;;;;5071876;28;20254;-48
2022/03/18 03:55:24;;;;;;;14.10;8.27;;;5.00;99.90;;;;;;5071615;28;20261;-49
2022/03/18 03:57:49;;;;;;;14.18;8.05;;;5.00;99.90;;;;;;5073275;28;20257;-48
2022/03/18 04:00:16;;;;;;;19.45;8.77;;;5.00;99.90;;;;;;5057488;28;20198;-48
2022/03/18 04:02:43;;;;;;;16.98;7.80;;;4.90;99.90;;;;;;5075492;28;20170;-48
2022/03/18 04:05:10;;;;;;;22.08;8.63;;;4.90;99.90;;;;;;5075690;28;20166;-48
2022/03/18 04:07:37;;;;;;;17.73;8.82;;;4.90;99.90;;;;;;5075381;28;20512;-48
2022/03/18 04:10:04;;;;;;;24.17;8.07;;;4.90;99.90;;;;;;5075392;28;20177;-48
2022/03/18 04:12:30;;;;;;;12.80;8.35;;;4.90;99.90;;;;;;5075276;28;20169;-48
2022/03/18 04:14:55;;;;;;;17.02;8.02;;;4.80;99.90;;;;;;5057591;28;20535;-48
2022/03/18 04:17:22;;;;;;;15.27;8.15;;;4.90;99.90;;;;;;5075169;28;20249;-48
2022/03/18 04:19:48;;;;;;;15.80;8.55;;;4.80;99.90;;;;;;5075280;28;20181;-48
2022/03/18 04:22:13;;;;;;;16.63;8.07;;;4.80;99.90;;;;;;5075181;28;20543;-48
2022/03/18 04:24:39;;;;;;;13.35;7.53;;;4.70;99.90;;;;;;5057142;28;20651;-48
2022/03/18 04:27:05;;;;;;;13.18;8.15;;;4.70;99.90;;;;;;5075139;28;20642;-48
2022/03/18 04:29:31;;;;;;;15.27;7.50;;;4.80;99.90;;;;;;5075052;28;20211;-48
2022/03/18 04:31:57;;;;;;;16.58;8.02;;;4.70;99.90;;;;;;5075449;28;20170;-48
2022/03/18 04:34:23;;;;;;;10.32;7.10;;;4.70;99.90;;;;;;5075175;28;20162;-48
2022/03/18 04:36:49;;;;;;;13.07;7.80;;;4.70;99.90;;;;;;5074886;28;20212;-48
2022/03/18 04:39:14;;;;;;;16.83;7.82;;;4.60;99.90;;;;;;5074858;28;20162;-48
2022/03/18 04:41:40;;;;;;;13.45;8.27;;;4.60;99.90;;;;;;5074721;28;20268;-48
2022/03/18 04:44:05;;;;;;;23.17;12.65;;;4.50;99.90;;;;;;5074760;28;20162;-48
2022/03/18 04:46:31;;;;;;;14.43;8.27;;;4.40;99.90;;;;;;5074479;28;20667;-48
2022/03/18 04:48:58;;;;;;;14.25;7.47;;;4.40;99.90;;;;;;5075179;28;20588;-48
2022/03/18 04:51:24;;;;;;;20.45;8.40;;;4.40;99.90;;;;;;5075077;28;20219;-48
2022/03/18 04:53:50;;;;;;;10.85;7.82;;;4.40;99.90;;;;;;5074780;28;20162;-48
2022/03/18 04:58:59;;;;;;;12.50;7.00;;;4.40;99.90;;;;;;5074368;28;20188;-48
2022/03/18 05:01:26;;;;;;;11.32;7.07;;;4.30;99.90;;;;;;5074595;28;20205;-49
2022/03/18 05:03:52;;;;;;;11.82;7.30;;;4.20;99.90;;;;;;5074315;28;20603;-49
2022/03/18 05:06:18;;;;;;;14.82;7.47;;;4.20;99.90;;;;;;5074480;28;20178;-49
2022/03/18 05:08:44;;;;;;;15.15;7.63;;;4.20;99.90;;;;;;5073875;28;20643;-49
2022/03/18 05:11:09;;;;;;;13.63;7.10;;;4.20;99.90;;;;;;5074255;28;20330;-49
2022/03/18 05:13:35;;;;;;;13.15;7.60;;;4.20;99.90;;;;;;5074233;28;20162;-49
2022/03/18 05:16:00;;;;;;;12.38;7.82;;;4.20;99.90;;;;;;5074346;28;20233;-48
2022/03/18 05:18:26;;;;;;;15.38;7.85;;;4.10;99.90;;;;;;5074339;28;20246;-49
2022/03/18 05:20:52;;;;;;;15.48;7.95;;;4.10;99.90;;;;;;5074714;28;20206;-48
2022/03/18 05:23:17;;;;;;;20.42;7.70;;;4.10;99.90;;;;;;5056030;28;20173;-48
2022/03/18 05:25:43;;;;;;;17.20;8.15;;;4.10;99.90;;;;;;5073901;28;20265;-48
2022/03/18 05:28:09;;;;;;;14.23;8.07;;;4.10;99.90;;;;;;5073947;28;20154;-49
2022/03/18 05:30:35;;;;;;;14.35;8.25;;;4.10;99.90;;;;;;5074081;28;20177;-48
2022/03/18 05:33:00;;;;;;;12.95;7.28;;;3.90;99.90;;;;;;5073850;28;20644;-49
2022/03/18 05:35:26;;;;;;;13.77;8.13;;;3.90;99.90;;;;;;5074098;28;20166;-48
2022/03/18 05:37:51;;;;;;;11.93;6.88;;;3.80;99.90;;;;;;5073659;28;20174;-48
2022/03/18 05:40:18;;;;;;;16.40;7.55;;;4.00;99.90;;;;;;5073291;28;20194;-48
2022/03/18 05:42:45;;;;;;;18.38;8.00;;;3.90;99.90;;;;;;5073901;28;20186;-49
2022/03/18 05:45:11;;;;;;;15.60;8.82;;;3.80;99.90;;;;;;5073744;28;20525;-48
2022/03/18 05:47:36;;;;;;;15.02;7.60;;;3.80;99.90;;;;;;5073322;28;20226;-48
2022/03/18 05:50:05;;;;;;;10.05;6.55;;;3.80;99.90;;;;;;5073173;28;20173;-48
2022/03/18 05:52:33;;;;;;;15.13;7.65;;;3.80;99.90;;;;;;5055324;28;20208;-48
2022/03/18 05:54:59;;;;;;;23.88;7.97;;;3.80;99.90;;;;;;5073580;28;20206;-48
2022/03/18 05:57:26;;;;;;;13.50;7.35;;;3.80;99.90;;;;;;5073577;28;20216;-49
2022/03/18 05:59:53;;;;;;;14.80;7.85;;;3.80;99.90;;;;;;5073410;28;20178;-47
2022/03/18 06:02:18;;;;;;;53.63;21.35;;;3.90;99.90;;;;;;5073094;28;20231;-47
2022/03/18 06:04:44;;;;;;;49.90;23.60;;;3.80;99.90;;;;;;5073225;28;20170;-47
2022/03/18 06:07:11;;;;;;;112.43;38.92;;;3.80;99.90;;;;;;5073258;28;20170;-47
2022/03/18 06:12:20;;;;;;;55.83;24.65;;;3.80;99.90;;;;;;5073032;28;20204;-47
2022/03/18 06:14:46;;;;;;;27.77;11.75;;;3.90;99.90;;;;;;5072894;28;20162;-47
2022/03/18 06:17:11;;;;;;;15.82;7.97;;;3.80;99.90;;;;;;5072859;28;20180;-47
2022/03/18 06:19:37;;;;;;;16.08;7.40;;;3.80;99.90;;;;;;5072191;28;20178;-47
2022/03/18 06:22:03;;;;;;;12.00;7.05;;;3.90;99.90;;;;;;5072486;28;20228;-47
2022/03/18 06:24:29;;;;;;;14.05;6.90;;;4.00;99.90;;;;;;5072889;28;20209;-47
2022/03/18 06:26:55;;;;;;;12.98;6.78;;;4.00;99.90;;;;;;5072968;28;20189;-47
2022/03/18 06:29:21;;;;;;;21.30;12.30;;;4.10;99.90;;;;;;5072542;28;20158;-46
2022/03/18 06:31:47;;;;;;;23.25;11.43;;;4.10;99.90;;;;;;5072477;28;20162;-47
2022/03/18 06:34:13;;;;;;;22.55;11.88;;;4.20;99.90;;;;;;5072512;28;20177;-47
2022/03/18 06:36:39;;;;;;;16.42;8.90;;;4.20;99.90;;;;;;5072691;28;20177;-47
2022/03/18 06:39:06;;;;;;;17.52;9.07;;;4.30;99.90;;;;;;5072638;28;20258;-47
2022/03/18 06:41:31;;;;;;;20.83;11.98;;;4.40;99.90;;;;;;5072235;28;20210;-47
2022/03/18 06:43:57;;;;;;;14.98;7.78;;;4.40;99.90;;;;;;5072826;28;20175;-47
2022/03/18 06:46:24;;;;;;;11.85;7.05;;;4.40;99.90;;;;;;5072014;28;20679;-48
2022/03/18 06:48:50;;;;;;;14.00;8.10;;;4.50;99.90;;;;;;5072214;28;20624;-47
2022/03/18 06:51:15;;;;;;;12.85;7.97;;;4.50;99.90;;;;;;5072194;28;20166;-47
2022/03/18 06:53:41;;;;;;;11.68;7.40;;;4.50;99.90;;;;;;5072193;28;20248;-47
2022/03/18 06:56:07;;;;;;;14.20;8.57;;;4.60;99.90;;;;;;5072065;28;20177;-48
2022/03/18 06:58:34;;;;;;;11.52;6.80;;;4.60;99.90;;;;;;5072039;28;20158;-47
2022/03/18 07:00:59;;;;;;;13.77;7.10;;;4.80;99.90;;;;;;5071995;28;20207;-47
2022/03/18 07:03:25;;;;;;;13.85;6.80;;;4.90;99.90;;;;;;5072303;28;20162;-47
2022/03/18 07:05:51;;;;;;;18.00;8.23;;;5.10;99.90;;;;;;5071929;28;20654;-47
2022/03/18 07:08:16;;;;;;;25.10;9.50;;;5.20;99.90;;;;;;5071814;28;20177;-47
2022/03/18 07:10:42;;;;;;;16.77;8.82;;;5.30;99.90;;;;;;5071962;28;20162;-47
2022/03/18 07:13:08;;;;;;;17.30;8.23;;;5.40;99.90;;;;;;5071984;28;20654;-47
2022/03/18 07:15:33;;;;;;;14.98;6.68;;;5.50;99.90;;;;;;5071847;28;20654;-47
2022/03/18 07:17:59;;;;;;;15.57;7.82;;;5.60;99.90;;;;;;5072185;28;20536;-47
2022/03/18 07:20:30;;;;;;;15.32;7.05;;;5.70;99.90;;;;;;5072187;28;20214;-47
2022/03/18 07:23:07;;;;;;;12.43;6.80;;;7.80;99.90;;;;;;5072292;28;20166;-48
2022/03/18 07:25:47;;;;;;;14.75;7.78;;;5.90;99.90;;;;;;5071675;28;20169;-47
2022/03/18 07:28:16;;;;;;;15.05;6.63;;;6.00;99.90;;;;;;5071992;28;20531;-48
2022/03/18 07:30:43;;;;;;;13.15;6.25;;;6.20;99.90;;;;;;5071613;28;20154;-47
2022/03/18 07:33:09;;;;;;;17.23;7.32;;;6.40;99.90;;;;;;5071739;28;20235;-47
2022/03/18 07:35:35;;;;;;;10.50;6.55;;;6.40;99.90;;;;;;5071720;28;20166;-47
2022/03/18 07:38:02;;;;;;;13.93;6.55;;;6.60;99.90;;;;;;5071872;28;20176;-47
2022/03/18 07:40:28;;;;;;;21.05;7.18;;;6.70;99.90;;;;;;5071966;28;20194;-47
2022/03/18 07:42:56;;;;;;;17.58;7.15;;;6.80;99.90;;;;;;5071651;28;20173;-47
2022/03/18 07:45:27;;;;;;;13.48;6.22;;;6.70;99.90;;;;;;5071632;28;20214;-47
2022/03/18 07:47:56;;;;;;;23.75;7.15;;;6.90;99.90;;;;;;5071405;28;20296;-47
2022/03/18 07:50:23;;;;;;;10.88;6.32;;;7.20;99.90;;;;;;5054089;28;20552;-47
2022/03/18 07:52:50;;;;;;;15.73;7.55;;;7.30;99.90;;;;;;5071547;28;20449;-47
2022/03/18 07:55:21;;;;;;;16.42;6.55;;;7.40;99.90;;;;;;5071547;28;20174;-47
2022/03/18 07:57:47;;;;;;;14.60;6.95;;;7.40;99.90;;;;;;5071394;28;20545;-47
2022/03/18 08:00:14;;;;;;;15.18;7.30;;;7.50;99.90;;;;;;5071320;28;20247;-47
2022/03/18 08:02:40;;;;;;;13.95;6.45;;;7.60;99.90;;;;;;5071386;28;20162;-47
2022/03/18 08:05:06;;;;;;;11.35;6.25;;;7.60;99.90;;;;;;5071278;28;20181;-47
2022/03/18 08:07:33;;;;;;;11.70;6.10;;;7.80;99.90;;;;;;5071340;28;20162;-47
2022/03/18 08:09:59;;;;;;;12.68;6.60;;;7.80;99.90;;;;;;5071594;28;20162;-47
2022/03/18 08:12:28;;;;;;;11.38;5.00;;;8.00;99.90;;;;;;5071869;28;20190;-47
2022/03/18 08:14:55;;;;;;;13.25;5.72;;;8.00;99.90;;;;;;5071328;28;20531;-47
2022/03/18 08:17:21;;;;;;;13.38;5.93;;;8.00;99.90;;;;;;5071220;28;20167;-47
2022/03/18 08:19:47;;;;;;;13.77;6.38;;;8.10;99.90;;;;;;5071242;28;20177;-47
2022/03/18 08:22:12;;;;;;;10.02;5.32;;;8.30;99.90;;;;;;5071468;28;20224;-47
2022/03/18 08:24:38;;;;;;;11.10;5.22;;;8.40;99.90;;;;;;5071245;28;20204;-47
2022/03/18 08:27:04;;;;;;;8.90;4.43;;;8.50;99.90;;;;;;5071073;28;20661;-47
2022/03/18 08:29:30;;;;;;;14.50;5.38;;;8.60;99.90;;;;;;5071543;28;20170;-47
2022/03/18 08:31:55;;;;;;;12.18;4.90;;;8.60;99.90;;;;;;5071537;28;20162;-47
2022/03/18 08:34:21;;;;;;;10.15;5.13;;;8.80;99.90;;;;;;5071115;28;20174;-47
2022/03/18 08:36:46;;;;;;;9.40;4.40;;;8.80;99.90;;;;;;5071165;28;20216;-47
2022/03/18 08:39:12;;;;;;;14.10;5.07;;;8.90;99.90;;;;;;5071111;28;20208;-47
2022/03/18 08:41:38;;;;;;;11.95;4.85;;;9.00;99.90;;;;;;5071095;28;20202;-47
2022/03/18 08:44:03;;;;;;;12.63;5.53;;;9.10;99.90;;;;;;5072925;28;20167;-46
2022/03/18 08:46:29;;;;;;;8.82;4.93;;;9.10;99.90;;;;;;5074518;28;20221;-47
2022/03/18 08:48:54;;;;;;;13.20;4.70;;;9.40;99.90;;;;;;5074883;28;20174;-47
2022/03/18 08:51:20;;;;;;;10.63;4.53;;;9.40;99.90;;;;;;5074571;28;20632;-47
2022/03/18 08:53:45;;;;;;;9.82;4.05;;;9.50;99.90;;;;;;5074520;28;20174;-47
2022/03/18 08:56:11;;;;;;;8.68;3.97;;;9.60;99.90;;;;;;5074493;28;20651;-47
2022/03/18 08:58:37;;;;;;;15.10;4.78;;;9.50;99.90;;;;;;5074570;28;20173;-47
2022/03/18 09:01:02;;;;;;;7.90;4.28;;;9.60;99.90;;;;;;5074271;28;20212;-47
2022/03/18 09:03:28;;;;;;;8.13;3.70;;;9.80;99.90;;;;;;5074703;28;20539;-47
2022/03/18 09:05:53;;;;;;;9.32;4.68;;;9.80;99.90;;;;;;5074277;28;20177;-47
2022/03/18 09:08:19;;;;;;;7.35;3.30;;;9.80;99.90;;;;;;5074256;28;20205;-47
2022/03/18 09:10:44;;;;;;;9.10;3.50;;;9.80;99.90;;;;;;5074244;28;20187;-47
2022/03/18 09:13:10;;;;;;;9.85;3.67;;;9.90;99.90;;;;;;5074180;28;20170;-47
2022/03/18 09:15:36;;;;;;;8.38;3.45;;;9.90;99.90;;;;;;5074097;28;20173;-47
2022/03/18 09:18:01;;;;;;;8.43;3.40;;;9.90;99.90;;;;;;5074028;28;20263;-47
2022/03/18 09:20:27;;;;;;;12.20;4.05;;;9.90;99.90;;;;;;5074403;28;20327;-47
2022/03/18 09:22:52;;;;;;;11.57;3.33;;;10.20;99.90;;;;;;5074288;28;20197;-47
2022/03/18 09:25:19;;;;;;;11.20;3.58;;;10.10;99.90;;;;;;5073928;28;20162;-47
2022/03/18 09:27:44;;;;;;;7.53;4.25;;;10.30;99.90;;;;;;5073926;28;20169;-47
2022/03/18 09:30:11;;;;;;;7.00;3.70;;;10.50;99.90;;;;;;5073823;28;20170;-47
2022/03/18 09:32:40;;;;;;;8.80;4.03;;;10.60;99.90;;;;;;5073694;28;20639;-47
2022/03/18 09:35:06;;;;;;;11.43;4.55;;;10.60;99.90;;;;;;5073575;28;20658;-47
2022/03/18 09:37:31;;;;;;;7.95;3.63;;;10.80;99.90;;;;;;5073622;28;20166;-47
2022/03/18 09:39:57;;;;;;;10.32;4.25;;;10.90;99.90;;;;;;5073784;28;20174;-47
2022/03/18 09:42:22;;;;;;;5.65;3.10;;;11.00;99.90;;;;;;5055695;28;20173;-47
2022/03/18 09:44:48;;;;;;;11.15;4.78;;;11.00;99.90;;;;;;5073541;28;20185;-47
2022/03/18 09:47:14;;;;;;;8.10;3.00;;;11.30;99.90;;;;;;5073487;28;20633;-47
2022/03/18 09:49:43;;;;;;;9.88;2.95;;;11.20;99.90;;;;;;5073447;28;20166;-47
2022/03/18 09:52:10;;;;;;;9.23;3.13;;;11.10;99.90;;;;;;5055662;28;20172;-47
2022/03/18 09:54:35;;;;;;;8.40;2.90;;;11.00;99.90;;;;;;5072690;28;20180;-47
2022/03/18 09:57:03;;;;;;;15.85;3.50;;;11.10;99.90;;;;;;5073265;28;20170;-47
2022/03/18 09:59:29;;;;;;;11.98;3.20;;;11.20;99.90;;;;;;5073604;28;20219;-47
2022/03/18 10:02:40;;;;;;;12.32;3.47;;;11.40;99.90;;;;;;5073688;28;20210;-47
2022/03/18 10:05:13;;;;;;;7.60;3.83;;;11.50;99.90;;;;;;5069120;28;20189;-47
2022/03/18 10:07:40;;;;;;;14.57;6.25;;;11.50;99.90;;;;;;5073119;28;20169;-47
2022/03/18 10:10:16;;;;;;;10.95;5.72;;;11.70;99.90;;;;;;5073112;28;20223;-47
2022/03/18 10:12:47;;;;;;;6.10;3.42;;;11.90;99.90;;;;;;5073229;28;20169;-47
2022/03/18 10:15:17;;;;;;;7.57;2.60;;;11.90;99.90;;;;;;5073195;28;20184;-47
2022/03/18 10:17:46;;;;;;;8.35;3.00;;;11.90;99.90;;;;;;5073011;28;20166;-47
2022/03/18 10:20:26;;;;;;;8.60;2.78;;;12.00;99.90;;;;;;5073099;28;20194;-47
2022/03/18 10:22:54;;;;;;;8.02;3.00;;;12.00;99.90;;;;;;5073045;28;20205;-47
2022/03/18 10:25:32;;;;;;;9.60;2.88;;;12.10;99.90;;;;;;5072893;28;20166;-47
2022/03/18 10:27:58;;;;;;;6.18;2.70;;;12.30;99.90;;;;;;5073102;28;20170;-47
2022/03/18 10:30:24;;;;;;;6.97;2.38;;;12.40;99.90;;;;;;5055091;28;20676;-47
2022/03/18 10:32:50;;;;;;;8.38;2.88;;;12.60;99.90;;;;;;5072707;28;20170;-47
2022/03/18 10:38:14;;;;;;;6.45;2.97;;;12.70;99.90;;;;;;5072771;28;20586;-47
2022/03/18 10:40:40;;;;;;;4.25;2.35;;;12.80;99.90;;;;;;5072725;28;20201;-47
2022/03/18 10:43:07;;;;;;;2.97;2.08;;;12.90;99.90;;;;;;5072649;28;20180;-47
2022/03/18 10:45:33;;;;;;;3.90;2.08;;;13.00;99.90;;;;;;5072471;28;20612;-47
2022/03/18 10:48:15;;;;;;;7.38;3.05;;;12.90;99.90;;;;;;5051305;28;20234;-47
2022/03/18 10:50:41;;;;;;;3.28;1.80;;;12.90;99.90;;;;;;5052415;28;20162;-47
2022/03/18 10:53:10;;;;;;;4.70;1.58;;;13.10;99.90;;;;;;5052529;28;20183;-47
2022/03/18 10:55:44;;;;;;;4.70;1.88;;;13.00;99.90;;;;;;5052432;28;20197;-47
2022/03/18 10:58:15;;;;;;;9.10;3.40;;;13.10;99.90;;;;;;5052162;28;20170;-47
2022/03/18 11:00:43;;;;;;;5.07;2.15;;;13.30;99.90;;;;;;5052237;28;20202;-47
2022/03/18 11:03:09;;;;;;;6.65;1.98;;;13.10;99.90;;;;;;5052161;28;20171;-47
2022/03/18 11:05:37;;;;;;;4.57;1.85;;;13.30;99.90;;;;;;5052075;28;20506;-47
2022/03/18 11:08:06;;;;;;;4.85;1.80;;;13.30;99.90;;;;;;5052186;28;20552;-47
2022/03/18 11:13:21;;;;;;;7.38;4.15;;;13.20;99.90;;;;;;5051174;28;20245;-47
2022/03/18 11:15:49;;;;;;;9.02;3.80;;;13.40;99.90;;;;;;5052162;28;20366;-47
2022/03/18 11:18:14;;;;;;;4.00;2.03;;;13.60;98.40;;;;;;5051736;28;20616;-47
2022/03/18 11:20:43;;;;;;;3.53;1.90;;;13.50;99.00;;;;;;5052039;28;20209;-47
2022/03/18 11:23:16;;;;;;;3.33;1.52;;;13.50;99.20;;;;;;5052119;28;20208;-47
2022/03/18 11:25:45;;;;;;;4.30;2.03;;;13.70;99.80;;;;;;5052044;28;20163;-47
2022/03/18 11:28:15;;;;;;;4.75;1.80;;;13.50;99.10;;;;;;5051739;28;20158;-47
2022/03/18 11:30:41;;;;;;;6.88;2.00;;;13.60;98.20;;;;;;5052033;28;20171;-47
2022/03/18 11:33:09;;;;;;;9.48;2.78;;;13.70;99.50;;;;;;5051730;28;20171;-47
2022/03/18 11:35:47;;;;;;;9.32;2.50;;;13.70;97.00;;;;;;5051588;28;20170;-47
2022/03/18 11:38:14;;;;;;;4.72;1.83;;;13.80;97.20;;;;;;5051662;28;20707;-48
2022/03/18 11:41:01;;;;;;;2.70;1.95;;;13.80;99.30;;;;;;5051843;28;20219;-48
2022/03/18 11:43:33;;;;;;;3.75;1.90;;;13.80;96.90;;;;;;5052069;28;20241;-48
2022/03/18 11:46:28;;;;;;;4.78;2.17;;;13.90;96.60;;;;;;5051637;28;20181;-48
2022/03/18 11:49:05;;;;;;;3.38;1.90;;;13.90;96.00;;;;;;5039034;28;20195;-48
2022/03/18 11:51:42;;;;;;;3.17;1.80;;;13.90;93.70;;;;;;5051649;28;20167;-48
2022/03/18 11:54:24;;;;;;;2.40;1.60;;;13.90;93.20;;;;;;5051770;28;20273;-48
2022/03/18 11:56:52;;;;;;;2.08;1.60;;;13.80;91.20;;;;;;5051832;28;20584;-48
2022/03/18 11:59:31;;;;;;;2.65;1.20;;;13.80;91.20;;;;;;5051435;28;20167;-49
2022/03/18 12:02:04;;;;;;;2.10;1.30;;;13.80;90.30;;;;;;5051932;28;20232;-47
2022/03/18 12:04:39;;;;;;;1.83;1.60;;;13.80;89.80;;;;;;5051486;28;20163;-48
2022/03/18 12:07:24;;;;;;;3.05;1.80;;;13.80;86.70;;;;;;5051635;28;20182;-47
2022/03/18 12:09:57;;;;;;;5.38;1.92;;;13.80;87.90;;;;;;5051302;28;20632;-47
2022/03/18 12:12:31;;;;;;;1.40;1.20;;;13.90;89.50;;;;;;5051345;28;20254;-47
2022/03/18 12:15:02;;;;;;;3.80;1.88;;;13.80;85.20;;;;;;5051823;28;20185;-47
2022/03/18 12:17:28;;;;;;;2.97;1.52;;;13.90;85.10;;;;;;5051805;28;20171;-47
2022/03/18 12:19:59;;;;;;;1.90;1.20;;;13.90;84.10;;;;;;5054616;28;20239;-47
2022/03/18 12:22:27;;;;;;;2.63;1.52;;;14.00;81.40;;;;;;5055571;28;20187;-48
2022/03/18 12:24:56;;;;;;;2.15;1.40;;;14.00;81.90;;;;;;5054959;28;20606;-47
2022/03/18 12:27:27;;;;;;;1.85;1.40;;;14.00;82.20;;;;;;5055233;28;20189;-47
2022/03/18 12:29:57;;;;;;;3.55;1.60;;;14.30;83.60;;;;;;5055226;28;20170;-47
2022/03/18 12:32:23;;;;;;;1.73;1.50;;;14.30;82.30;;;;;;5054918;28;20209;-47
2022/03/18 12:34:51;;;;;;;4.38;1.77;;;14.30;79.80;;;;;;5054769;28;20643;-48
2022/03/18 12:37:22;;;;;;;6.43;1.60;;;14.30;81.00;;;;;;5054825;28;20536;-47
2022/03/18 12:40:00;;;;;;;4.15;1.70;;;14.30;79.50;;;;;;5054708;28;20178;-47
2022/03/18 12:42:26;;;;;;;2.20;1.50;;;14.50;80.40;;;;;;5055022;28;20175;-47
2022/03/18 12:44:57;;;;;;;3.63;1.50;;;14.40;79.40;;;;;;5054704;28;20543;-48
2022/03/18 12:47:26;;;;;;;1.70;1.23;;;14.50;80.20;;;;;;5065774;28;20287;-47
2022/03/18 12:49:51;;;;;;;3.78;1.70;;;14.30;78.60;;;;;;5074873;28;20170;-47
2022/03/18 12:52:19;;;;;;;1.65;1.27;;;14.50;81.20;;;;;;5074499;28;20162;-47
2022/03/18 12:55:05;;;;;;;2.60;1.35;;;14.50;76.90;;;;;;5074757;28;20181;-47
2022/03/18 12:57:38;;;;;;;1.67;1.40;;;14.50;77.20;;;;;;5074398;28;20166;-47
2022/03/18 13:00:09;;;;;;;4.95;2.03;;;14.50;78.00;;;;;;5074266;28;20169;-47
2022/03/18 13:02:35;;;;;;;3.40;1.60;;;14.50;77.80;;;;;;5074468;28;20186;-48
2022/03/18 13:05:05;;;;;;;2.55;1.55;;;14.60;78.90;;;;;;5074281;28;20166;-47
2022/03/18 13:07:30;;;;;;;4.00;1.58;;;14.80;81.60;;;;;;5074388;28;20181;-47